Accueil
METAR-TAF:

METAR-TAF

Aéroports :

Toulon, France

Aéroport de Toulon-Hyères

latitude: 43-06N, longitude: 006-09E, altitude: 3 m

Observation

Le bulletin a été fait il y a 22 minutes, à 09:30 UTC
Vent 6 kt de sud-est, variant entre est et sud
Température 29°C
Humidité 43%
Pression 1017 hPa
Visibilité 10 km ou plus
pas de nuages en-dessous de 1500 mètres et pas de cumulonimbus.

METAR: LFTH 170930Z AUTO 14006KT 090V180 CAVOK 29/15 Q1017 NOSIG

Heure: 11:52 (09:52 UTC)

Prévision

Le bulletin a été fait il y a 1 heure et 52 minutes, à 08:00 UTC
Prévision valable du 17 à 09 UTC au 18 à 09 UTC
Vent 5 kt de sud-est
Visibilité 10 km ou plus
pas de nuages en-dessous de 1500 mètres et pas de cumulonimbus.
Evoluant progressivement
du 17 à 18 UTC au 17 à 20 UTC
Vent 3 kt de direction variable

TAF: LFTH 170800Z 1709/1809 14005KT CAVOK BECMG 1718/1720 VRB03KT

Observations et prévisions météorologiques de plus de 4000 aéroports (messages METAR et TAF).

Les stations disponibles sont représentées par des disques jaunes et rouges sur la carte.

Passer la souris dessus pour voir le nom de la station.

Cliquer dessus pour voir les observations et prévisions météorologiques.

Pour changer de carte: cliquez sur les boutons verts avec une croix noire pour zoomer, sur le bouton vert avec un tiret pour effectuer un zoom arrière, ou sur les flèches vertes pour les cartes adjacentes.


METAR-TAF: